Time;durP1;ratioP1;P1;durP2;ratioP2;P2;SDS_P1;SDS_P2;PMS_P1;PMS_P2;Temp;Humidity;BMP_temperature;BMP_pressure;BME280_temperature;BME280_humidity;BME280_pressure;Samples;Min_cycle;Max_cycle;Signal;HPM_P1;HPM_P2
2022/06/17 00:01:26;;;;;;;7.90;6.30;;;;;;;;;;103999;1300;22760;-28
2022/06/17 00:04:03;;;;;;;6.90;5.10;;;;;;;;;;104048;1300;22751;-29
2022/06/17 00:06:42;;;;;;;5.10;4.60;;;;;;;;;;104024;1300;22699;-30
2022/06/17 00:09:20;;;;;;;4.10;3.80;;;;;;;;;;103987;1300;22648;-29
2022/06/17 00:11:57;;;;;;;4.60;4.00;;;;;;;;;;103853;1300;24293;-29
2022/06/17 00:15:11;;;;;;;5.00;4.60;;;;;;;;;;104078;1300;22501;-29
2022/06/17 00:17:32;;;;;;;3.90;3.20;;;;;;;;;;103902;1300;22508;-25
2022/06/17 00:20:11;;;;;;;7.40;3.90;;;;;;;;;;104064;1300;22764;-29
2022/06/17 00:22:49;;;;;;;3.80;3.40;;;;;;;;;;104048;1300;23321;-28
2022/06/17 00:25:27;;;;;;;3.30;3.00;;;;;;;;;;103985;1300;22506;-29
2022/06/17 00:28:05;;;;;;;11.90;3.00;;;;;;;;;;104032;1300;22734;-28
2022/06/17 00:30:44;;;;;;;4.10;3.60;;;;;;;;;;104047;1300;22506;-25
2022/06/17 00:33:22;;;;;;;6.80;2.90;;;;;;;;;;104091;1300;24287;-27
2022/06/17 00:36:00;;;;;;;3.90;3.20;;;;;;;;;;103860;1300;22502;-30
2022/06/17 00:38:37;;;;;;;8.30;3.50;;;;;;;;;;104070;1300;22630;-29
2022/06/17 00:41:16;;;;;;;4.70;2.50;;;;;;;;;;104002;1300;22496;-29
2022/06/17 00:43:54;;;;;;;4.40;2.10;;;;;;;;;;103852;1300;22498;-29
2022/06/17 00:46:35;;;;;;;8.70;2.90;;;;;;;;;;104003;1300;22488;-29
2022/06/17 00:49:15;;;;;;;5.00;3.00;;;;;;;;;;104027;1300;22492;-25
2022/06/17 00:51:52;;;;;;;4.20;3.10;;;;;;;;;;104026;1300;22622;-29
2022/06/17 00:54:34;;;;;;;4.50;1.90;;;;;;;;;;104008;1298;22837;-25
2022/06/17 00:57:15;;;;;;;4.00;1.80;;;;;;;;;;104026;1300;22721;-29
2022/06/17 01:00:00;;;;;;;1.70;1.50;;;;;;;;;;104011;1300;24253;-29
2022/06/17 01:02:38;;;;;;;10.80;2.50;;;;;;;;;;104096;1300;22495;-29
2022/06/17 01:05:16;;;;;;;2.10;1.90;;;;;;;;;;104057;1300;22507;-28
2022/06/17 01:07:59;;;;;;;3.90;1.90;;;;;;;;;;104023;1300;22502;-28
2022/06/17 01:10:36;;;;;;;2.80;1.70;;;;;;;;;;103952;1300;22488;-27
2022/06/17 01:13:14;;;;;;;6.80;1.90;;;;;;;;;;103984;1300;22602;-31
2022/06/17 01:15:52;;;;;;;3.50;1.90;;;;;;;;;;104053;1300;22530;-29
2022/06/17 01:18:30;;;;;;;2.40;1.40;;;;;;;;;;104004;1300;22496;-27
2022/06/17 01:21:10;;;;;;;8.50;1.70;;;;;;;;;;104007;1300;22753;-29
2022/06/17 01:23:48;;;;;;;3.30;1.60;;;;;;;;;;104060;1300;22508;-25
2022/06/17 01:26:25;;;;;;;3.10;1.60;;;;;;;;;;103973;1300;22731;-29
2022/06/17 01:29:06;;;;;;;4.60;1.60;;;;;;;;;;104014;1300;22502;-25
2022/06/17 01:31:44;;;;;;;11.90;2.20;;;;;;;;;;104056;1300;22529;-24
2022/06/17 01:34:22;;;;;;;9.00;1.40;;;;;;;;;;103980;1300;22956;-26
2022/06/17 01:37:00;;;;;;;3.20;1.30;;;;;;;;;;104033;1300;22505;-25
2022/06/17 01:39:40;;;;;;;3.90;1.30;;;;;;;;;;104126;1300;22508;-25
2022/06/17 01:42:18;;;;;;;1.50;0.90;;;;;;;;;;104063;1300;23806;-25
2022/06/17 01:44:55;;;;;;;5.10;1.40;;;;;;;;;;104050;1300;22719;-29
2022/06/17 01:47:33;;;;;;;3.90;1.30;;;;;;;;;;103998;1300;22496;-29
2022/06/17 01:50:12;;;;;;;11.10;1.70;;;;;;;;;;104043;1300;22706;-29
2022/06/17 01:52:52;;;;;;;3.80;1.50;;;;;;;;;;104053;1300;22493;-29
2022/06/17 01:55:31;;;;;;;12.60;1.90;;;;;;;;;;104000;1300;22510;-25
2022/06/17 01:58:11;;;;;;;6.00;1.70;;;;;;;;;;104014;1298;22505;-25
2022/06/17 02:00:48;;;;;;;7.00;1.60;;;;;;;;;;104073;1300;22512;-30
2022/06/17 02:03:28;;;;;;;1.70;1.30;;;;;;;;;;104029;1299;22507;-25
2022/06/17 02:06:08;;;;;;;9.40;2.70;;;;;;;;;;103996;1300;22503;-28
2022/06/17 02:08:46;;;;;;;3.20;1.40;;;;;;;;;;104022;1300;22718;-25
2022/06/17 02:11:24;;;;;;;2.40;0.80;;;;;;;;;;104010;1300;23482;-29
2022/06/17 02:14:06;;;;;;;8.50;1.50;;;;;;;;;;104063;1299;22513;-25
2022/06/17 02:16:45;;;;;;;3.80;1.50;;;;;;;;;;103958;1300;22499;-29
2022/06/17 02:19:24;;;;;;;4.00;1.20;;;;;;;;;;104007;1300;22840;-29
2022/06/17 02:22:04;;;;;;;3.20;1.10;;;;;;;;;;104019;1300;22754;-31
2022/06/17 02:24:42;;;;;;;1.40;1.20;;;;;;;;;;104115;1300;25383;-23
2022/06/17 02:27:19;;;;;;;2.10;1.40;;;;;;;;;;104047;1300;22626;-29
2022/06/17 02:29:57;;;;;;;1.80;1.30;;;;;;;;;;103976;1300;22500;-31
2022/06/17 02:32:35;;;;;;;8.10;1.30;;;;;;;;;;103813;1300;22628;-31
2022/06/17 02:35:15;;;;;;;2.70;1.00;;;;;;;;;;103980;1300;22759;-25
2022/06/17 02:37:52;;;;;;;3.10;1.50;;;;;;;;;;104013;1300;22644;-24
2022/06/17 02:40:32;;;;;;;1.70;1.20;;;;;;;;;;104052;1300;22507;-31
2022/06/17 02:43:11;;;;;;;2.20;1.10;;;;;;;;;;104064;1300;22499;-31
2022/06/17 02:45:50;;;;;;;2.60;1.30;;;;;;;;;;103994;1300;22598;-29
2022/06/17 02:48:30;;;;;;;2.90;1.50;;;;;;;;;;104007;1300;22597;-31
2022/06/17 02:51:07;;;;;;;11.90;1.60;;;;;;;;;;104066;1300;22526;-27
2022/06/17 02:53:45;;;;;;;2.80;1.40;;;;;;;;;;104022;1300;22486;-31
2022/06/17 02:56:25;;;;;;;1.70;1.20;;;;;;;;;;103958;1300;22753;-29
2022/06/17 02:59:06;;;;;;;4.20;0.80;;;;;;;;;;104013;1300;22782;-24
2022/06/17 03:01:43;;;;;;;6.30;1.30;;;;;;;;;;104027;1300;22610;-28
2022/06/17 03:04:22;;;;;;;0.90;0.70;;;;;;;;;;103982;1300;22496;-25
2022/06/17 03:07:00;;;;;;;2.30;1.40;;;;;;;;;;103858;1300;22761;-25
2022/06/17 03:09:37;;;;;;;2.30;1.20;;;;;;;;;;104023;1300;23006;-27
2022/06/17 03:12:17;;;;;;;2.10;1.50;;;;;;;;;;104024;1300;22498;-31
2022/06/17 03:14:58;;;;;;;2.00;1.10;;;;;;;;;;104027;1300;22858;-25
2022/06/17 03:17:38;;;;;;;4.80;1.40;;;;;;;;;;104131;1300;22493;-25
2022/06/17 03:20:16;;;;;;;7.60;1.40;;;;;;;;;;104048;1300;22818;-24
2022/06/17 03:22:57;;;;;;;1.80;0.90;;;;;;;;;;103852;1300;22721;-24
2022/06/17 03:25:38;;;;;;;1.00;1.00;;;;;;;;;;104013;1300;24601;-26
2022/06/17 03:28:16;;;;;;;3.70;1.00;;;;;;;;;;103969;1300;22505;-26
2022/06/17 03:30:57;;;;;;;2.40;0.80;;;;;;;;;;104040;1300;22734;-28
2022/06/17 03:33:35;;;;;;;1.30;0.70;;;;;;;;;;104000;1300;22505;-25
2022/06/17 03:36:15;;;;;;;1.10;0.80;;;;;;;;;;104053;1299;22497;-24
2022/06/17 03:38:54;;;;;;;0.80;0.60;;;;;;;;;;103928;1300;22496;-27
2022/06/17 03:41:35;;;;;;;2.20;1.20;;;;;;;;;;104000;1300;22504;-25
2022/06/17 03:44:13;;;;;;;2.00;1.10;;;;;;;;;;104029;1300;23814;-28
2022/06/17 03:46:52;;;;;;;1.40;0.70;;;;;;;;;;103997;1300;22648;-28
2022/06/17 03:49:50;;;;;;;2.20;0.50;;;;;;;;;;103908;1300;22728;-24
2022/06/17 03:52:31;;;;;;;1.60;0.70;;;;;;;;;;103980;1300;22502;-28
2022/06/17 03:55:12;;;;;;;1.70;0.90;;;;;;;;;;104048;1300;22719;-24
2022/06/17 03:57:50;;;;;;;0.70;0.50;;;;;;;;;;104009;1300;24339;-27
2022/06/17 04:00:28;;;;;;;3.40;2.00;;;;;;;;;;103992;1300;22636;-24
2022/06/17 04:03:06;;;;;;;0.90;0.50;;;;;;;;;;104053;1300;22699;-26
2022/06/17 04:05:44;;;;;;;1.50;0.60;;;;;;;;;;104003;1300;22725;-24
2022/06/17 04:08:21;;;;;;;2.20;0.50;;;;;;;;;;104018;1300;22604;-28
2022/06/17 04:10:59;;;;;;;0.70;0.40;;;;;;;;;;103856;1300;22618;-24
2022/06/17 04:13:37;;;;;;;2.60;0.70;;;;;;;;;;104065;1299;22502;-28
2022/06/17 04:16:14;;;;;;;1.70;0.70;;;;;;;;;;103576;1300;614981;-25
2022/06/17 04:18:52;;;;;;;2.50;0.60;;;;;;;;;;104025;1300;24325;-29
2022/06/17 04:21:29;;;;;;;1.60;0.30;;;;;;;;;;103992;1300;23702;-29
2022/06/17 04:24:09;;;;;;;0.40;0.30;;;;;;;;;;103990;1300;24262;-25
2022/06/17 04:26:47;;;;;;;0.70;0.40;;;;;;;;;;104016;1300;22493;-24
2022/06/17 04:29:27;;;;;;;0.40;0.30;;;;;;;;;;103944;1300;22490;-28
2022/06/17 04:32:10;;;;;;;3.50;0.40;;;;;;;;;;104062;1300;22497;-30
2022/06/17 04:34:48;;;;;;;3.00;0.30;;;;;;;;;;104031;1300;22509;-26
2022/06/17 04:37:25;;;;;;;1.50;0.30;;;;;;;;;;104063;1300;22492;-26
2022/06/17 04:40:03;;;;;;;0.60;0.40;;;;;;;;;;103961;1300;22499;-30
2022/06/17 04:42:41;;;;;;;3.90;0.70;;;;;;;;;;104031;1300;22506;-28
2022/06/17 04:45:19;;;;;;;0.80;0.50;;;;;;;;;;104023;1300;22505;-25
2022/06/17 04:47:57;;;;;;;0.40;0.20;;;;;;;;;;104053;1300;22697;-29
2022/06/17 04:50:35;;;;;;;1.80;0.30;;;;;;;;;;104009;1300;22501;-28
2022/06/17 04:53:12;;;;;;;0.90;0.40;;;;;;;;;;104003;1300;24902;-29
2022/06/17 04:55:50;;;;;;;0.70;0.30;;;;;;;;;;104013;1300;22490;-29
2022/06/17 04:58:27;;;;;;;0.50;0.40;;;;;;;;;;104038;1300;22500;-29
2022/06/17 05:01:05;;;;;;;1.30;0.30;;;;;;;;;;104110;1300;22601;-26
2022/06/17 05:03:42;;;;;;;0.60;0.30;;;;;;;;;;104056;1300;22506;-27
2022/06/17 05:06:20;;;;;;;2.50;0.60;;;;;;;;;;104026;1300;24940;-27
2022/06/17 05:09:00;;;;;;;0.90;0.40;;;;;;;;;;104050;1300;22492;-29
2022/06/17 05:11:39;;;;;;;2.60;0.80;;;;;;;;;;103956;1300;22846;-28
2022/06/17 05:14:20;;;;;;;0.80;0.30;;;;;;;;;;103999;1300;22493;-28
2022/06/17 05:16:58;;;;;;;0.90;0.60;;;;;;;;;;104014;1300;24200;-24
2022/06/17 05:19:35;;;;;;;0.30;0.30;;;;;;;;;;104012;1300;22496;-25
2022/06/17 05:22:14;;;;;;;0.70;0.40;;;;;;;;;;103988;1300;22600;-29
2022/06/17 05:24:52;;;;;;;0.60;0.20;;;;;;;;;;104054;1297;22508;-29
2022/06/17 05:27:30;;;;;;;0.60;0.20;;;;;;;;;;104185;1297;24182;-26
2022/06/17 05:30:07;;;;;;;0.40;0.20;;;;;;;;;;104187;1297;22526;-25
2022/06/17 05:32:46;;;;;;;3.10;0.40;;;;;;;;;;104150;1297;22506;-27
2022/06/17 05:35:24;;;;;;;3.70;0.40;;;;;;;;;;104107;1297;22502;-27
2022/06/17 05:38:01;;;;;;;0.30;0.30;;;;;;;;;;104097;1297;23533;-27
2022/06/17 05:40:39;;;;;;;0.30;0.20;;;;;;;;;;104128;1297;24900;-30
2022/06/17 05:43:17;;;;;;;0.20;0.10;;;;;;;;;;104181;1297;22498;-30
2022/06/17 05:45:54;;;;;;;0.20;0.20;;;;;;;;;;104172;1297;24313;-26
2022/06/17 05:48:32;;;;;;;3.70;0.30;;;;;;;;;;104170;1297;22492;-26
2022/06/17 05:51:10;;;;;;;1.20;0.30;;;;;;;;;;104157;1297;22482;-26
2022/06/17 05:53:48;;;;;;;0.30;0.00;;;;;;;;;;104196;1297;22747;-26
2022/06/17 05:56:25;;;;;;;0.70;0.30;;;;;;;;;;104174;1297;22482;-30
2022/06/17 05:59:03;;;;;;;1.40;0.30;;;;;;;;;;104095;1297;22505;-24
2022/06/17 06:01:40;;;;;;;1.60;0.30;;;;;;;;;;104172;1297;22506;-25
2022/06/17 06:04:18;;;;;;;0.70;0.40;;;;;;;;;;104195;1297;22625;-28
2022/06/17 06:06:55;;;;;;;1.40;0.40;;;;;;;;;;104146;1297;22495;-30
2022/06/17 06:09:33;;;;;;;0.70;0.30;;;;;;;;;;104144;1297;22499;-30
2022/06/17 06:12:10;;;;;;;1.40;0.30;;;;;;;;;;104158;1297;22489;-30
2022/06/17 06:14:48;;;;;;;1.40;0.40;;;;;;;;;;104093;1297;22496;-30
2022/06/17 06:17:25;;;;;;;0.50;0.30;;;;;;;;;;104071;1297;22512;-26
2022/06/17 06:20:03;;;;;;;2.60;0.30;;;;;;;;;;104174;1297;22693;-30
2022/06/17 06:22:41;;;;;;;1.00;0.50;;;;;;;;;;104139;1297;22499;-30
2022/06/17 06:25:18;;;;;;;0.40;0.30;;;;;;;;;;104107;1297;22764;-30
2022/06/17 06:27:56;;;;;;;3.10;0.10;;;;;;;;;;104130;1297;23611;-26
2022/06/17 06:30:33;;;;;;;3.10;0.60;;;;;;;;;;104157;1297;24179;-26
2022/06/17 06:33:11;;;;;;;1.00;0.50;;;;;;;;;;104167;1297;22856;-27
2022/06/17 06:35:48;;;;;;;1.20;0.30;;;;;;;;;;104181;1297;22505;-30
2022/06/17 06:38:26;;;;;;;3.20;0.40;;;;;;;;;;104147;1297;22753;-27
2022/06/17 06:41:03;;;;;;;0.80;0.30;;;;;;;;;;104174;1297;22736;-30
2022/06/17 06:43:41;;;;;;;0.40;0.20;;;;;;;;;;104136;1297;22498;-27
2022/06/17 06:46:19;;;;;;;2.10;0.30;;;;;;;;;;104169;1297;22510;-29
2022/06/17 06:48:57;;;;;;;0.90;0.20;;;;;;;;;;104177;1297;22510;-29
2022/06/17 06:51:34;;;;;;;1.20;0.30;;;;;;;;;;104167;1297;22628;-29
2022/06/17 06:54:12;;;;;;;1.70;0.40;;;;;;;;;;104169;1297;24343;-26
2022/06/17 06:56:50;;;;;;;3.10;0.40;;;;;;;;;;104210;1297;22490;-28
2022/06/17 06:59:27;;;;;;;1.30;0.40;;;;;;;;;;103842;1297;22733;-29
2022/06/17 07:02:05;;;;;;;2.20;0.40;;;;;;;;;;104083;1297;22484;-29
2022/06/17 07:04:42;;;;;;;1.40;0.40;;;;;;;;;;104152;1297;22585;-29
2022/06/17 07:07:20;;;;;;;1.30;0.30;;;;;;;;;;104113;1297;22840;-25
2022/06/17 07:09:57;;;;;;;1.20;0.50;;;;;;;;;;104120;1297;24651;-25
2022/06/17 07:12:35;;;;;;;0.60;0.30;;;;;;;;;;104155;1297;22509;-25
2022/06/17 07:15:13;;;;;;;1.90;0.30;;;;;;;;;;104110;1297;23550;-28
2022/06/17 07:17:54;;;;;;;1.00;0.30;;;;;;;;;;104098;1297;24202;-26
2022/06/17 07:20:36;;;;;;;0.80;0.40;;;;;;;;;;104164;1297;22753;-26
2022/06/17 07:23:15;;;;;;;0.90;0.50;;;;;;;;;;104154;1297;22736;-25
2022/06/17 07:25:53;;;;;;;0.60;0.30;;;;;;;;;;104099;1297;22600;-26
2022/06/17 07:28:30;;;;;;;1.40;0.20;;;;;;;;;;104143;1297;22616;-30
2022/06/17 07:31:08;;;;;;;1.30;0.40;;;;;;;;;;104126;1297;22486;-26
2022/06/17 07:33:45;;;;;;;2.00;0.30;;;;;;;;;;104175;1297;22507;-30
2022/06/17 07:41:50;;;;;;;1.30;0.30;;;;;;;;;;104088;1297;22510;-29
2022/06/17 07:44:27;;;;;;;1.00;0.20;;;;;;;;;;104144;1297;23886;-24
2022/06/17 07:47:05;;;;;;;3.50;0.50;;;;;;;;;;104119;1297;22599;-28
2022/06/17 07:49:42;;;;;;;0.40;0.30;;;;;;;;;;104153;1297;22629;-24
2022/06/17 07:52:20;;;;;;;6.50;0.60;;;;;;;;;;104157;1297;23863;-26
2022/06/17 07:54:57;;;;;;;2.50;0.40;;;;;;;;;;104176;1297;22834;-28
2022/06/17 07:57:35;;;;;;;0.60;0.20;;;;;;;;;;104126;1297;22833;-24
2022/06/17 08:00:16;;;;;;;1.30;0.40;;;;;;;;;;104172;1297;22606;-28
2022/06/17 08:02:53;;;;;;;1.20;0.40;;;;;;;;;;104180;1297;22496;-24
2022/06/17 08:05:31;;;;;;;0.90;0.40;;;;;;;;;;104130;1297;22789;-24
2022/06/17 08:08:08;;;;;;;1.00;0.40;;;;;;;;;;104191;1297;24179;-24
2022/06/17 08:10:46;;;;;;;0.70;0.40;;;;;;;;;;104111;1297;22876;-24
2022/06/17 08:13:24;;;;;;;1.70;0.50;;;;;;;;;;104156;1297;22495;-24
2022/06/17 08:16:02;;;;;;;4.80;0.80;;;;;;;;;;104154;1297;23764;-28
2022/06/17 08:18:39;;;;;;;1.00;0.30;;;;;;;;;;104153;1297;22623;-24
2022/06/17 08:21:17;;;;;;;1.00;0.40;;;;;;;;;;104160;1297;22751;-28
2022/06/17 08:23:54;;;;;;;1.10;0.40;;;;;;;;;;104142;1297;22512;-24
2022/06/17 08:26:32;;;;;;;1.90;0.70;;;;;;;;;;104131;1297;22760;-28
2022/06/17 08:29:09;;;;;;;2.30;0.40;;;;;;;;;;104188;1297;22825;-24
2022/06/17 08:31:47;;;;;;;1.60;0.70;;;;;;;;;;104157;1297;22498;-28
2022/06/17 08:34:24;;;;;;;5.40;0.40;;;;;;;;;;104153;1297;22731;-28
2022/06/17 08:37:02;;;;;;;1.80;0.20;;;;;;;;;;104218;1297;22631;-28
2022/06/17 08:39:39;;;;;;;0.60;0.40;;;;;;;;;;104039;1300;22510;-26
2022/06/17 08:42:26;;;;;;;1.60;0.30;;;;;;;;;;104159;1297;22722;-28
2022/06/17 08:45:09;;;;;;;0.60;0.30;;;;;;;;;;104130;1297;22651;-30
2022/06/17 08:47:47;;;;;;;21.50;0.60;;;;;;;;;;104184;1297;22492;-24
2022/06/17 08:50:28;;;;;;;1.20;0.50;;;;;;;;;;104136;1297;22496;-28
2022/06/17 08:53:09;;;;;;;9.60;0.40;;;;;;;;;;104285;1297;22485;-28
2022/06/17 08:55:50;;;;;;;1.00;0.20;;;;;;;;;;104042;1300;22514;-26
2022/06/17 08:58:28;;;;;;;4.20;0.70;;;;;;;;;;104190;1296;22691;-26
2022/06/17 09:01:17;;;;;;;1.60;0.50;;;;;;;;;;104143;1297;22509;-25
2022/06/17 09:03:58;;;;;;;0.50;0.40;;;;;;;;;;103995;1300;22494;-25
2022/06/17 09:06:39;;;;;;;1.80;0.40;;;;;;;;;;104210;1297;22527;-25
2022/06/17 09:09:17;;;;;;;1.50;0.60;;;;;;;;;;104174;1297;22607;-25
2022/06/17 09:11:54;;;;;;;2.60;0.40;;;;;;;;;;104165;1297;22509;-28
2022/06/17 09:14:39;;;;;;;0.30;0.20;;;;;;;;;;104121;1297;24292;-25
2022/06/17 09:17:18;;;;;;;1.00;0.30;;;;;;;;;;104124;1297;22493;-28
2022/06/17 09:19:56;;;;;;;0.80;0.30;;;;;;;;;;104150;1297;22629;-30
2022/06/17 09:22:36;;;;;;;1.20;1.10;;;;;;;;;;104145;1297;22863;-30
2022/06/17 09:25:15;;;;;;;1.60;0.40;;;;;;;;;;104120;1297;22493;-26
2022/06/17 09:27:53;;;;;;;0.70;0.50;;;;;;;;;;104182;1297;22510;-27
2022/06/17 09:30:32;;;;;;;3.10;0.60;;;;;;;;;;104111;1297;22715;-24
2022/06/17 09:33:12;;;;;;;2.20;0.60;;;;;;;;;;104121;1297;22493;-31
2022/06/17 09:35:50;;;;;;;1.40;0.70;;;;;;;;;;104161;1297;22499;-28
2022/06/17 09:38:27;;;;;;;1.60;0.60;;;;;;;;;;104156;1297;22483;-28
2022/06/17 09:41:08;;;;;;;1.50;0.40;;;;;;;;;;104221;1297;22495;-24
2022/06/17 09:43:48;;;;;;;1.20;0.30;;;;;;;;;;104202;1297;22508;-28
2022/06/17 09:46:30;;;;;;;3.00;0.70;;;;;;;;;;104142;1297;23027;-28
2022/06/17 09:49:13;;;;;;;1.50;0.50;;;;;;;;;;104036;1297;22495;-28
2022/06/17 09:51:53;;;;;;;0.60;0.30;;;;;;;;;;104154;1297;22492;-25
2022/06/17 09:54:31;;;;;;;1.10;0.40;;;;;;;;;;104142;1297;23744;-28
2022/06/17 09:57:12;;;;;;;1.20;0.40;;;;;;;;;;104123;1297;22841;-25
2022/06/17 09:59:51;;;;;;;3.30;0.40;;;;;;;;;;104017;1300;23512;-28
2022/06/17 10:02:34;;;;;;;19.90;2.10;;;;;;;;;;104159;1297;22512;-28
2022/06/17 10:05:14;;;;;;;2.10;0.60;;;;;;;;;;104177;1297;22489;-28
2022/06/17 10:07:55;;;;;;;1.50;0.30;;;;;;;;;;104129;1297;22511;-24
2022/06/17 10:10:36;;;;;;;3.90;0.60;;;;;;;;;;104208;1297;22494;-24
2022/06/17 10:13:17;;;;;;;6.10;0.40;;;;;;;;;;104137;1297;24931;-30
2022/06/17 10:18:39;;;;;;;0.50;0.30;;;;;;;;;;104150;1297;22559;-29
2022/06/17 10:21:21;;;;;;;0.40;0.30;;;;;;;;;;104142;1297;22885;-26
2022/06/17 10:24:12;;;;;;;3.90;0.60;;;;;;;;;;104263;1297;22523;-29
2022/06/17 10:26:50;;;;;;;5.10;0.70;;;;;;;;;;104114;1297;22596;-29
2022/06/17 10:29:32;;;;;;;0.90;0.40;;;;;;;;;;104181;1297;22588;-29
2022/06/17 10:32:10;;;;;;;0.30;0.20;;;;;;;;;;104142;1297;22497;-24
2022/06/17 10:34:48;;;;;;;1.60;0.60;;;;;;;;;;104191;1297;22499;-30
2022/06/17 10:37:26;;;;;;;1.10;0.40;;;;;;;;;;103975;1300;22486;-25
2022/06/17 10:40:05;;;;;;;2.00;0.50;;;;;;;;;;104115;1297;24221;-24
2022/06/17 10:42:46;;;;;;;0.40;0.20;;;;;;;;;;104000;1297;23824;-28
2022/06/17 10:45:24;;;;;;;0.40;0.30;;;;;;;;;;104024;1300;22516;-24
2022/06/17 10:48:04;;;;;;;2.90;0.40;;;;;;;;;;104086;1298;23547;-25
2022/06/17 10:50:42;;;;;;;4.00;1.00;;;;;;;;;;104081;1297;22785;-28
2022/06/17 10:53:21;;;;;;;3.50;0.50;;;;;;;;;;104153;1297;22724;-24
2022/06/17 10:56:00;;;;;;;0.80;0.60;;;;;;;;;;104045;1297;24242;-27
2022/06/17 10:58:39;;;;;;;1.20;0.50;;;;;;;;;;104148;1297;24199;-26
2022/06/17 11:01:16;;;;;;;0.70;0.40;;;;;;;;;;104180;1297;22495;-30
2022/06/17 11:03:57;;;;;;;1.20;0.20;;;;;;;;;;104173;1297;22717;-28
2022/06/17 11:06:38;;;;;;;2.20;0.60;;;;;;;;;;104162;1297;22932;-28
2022/06/17 11:09:18;;;;;;;3.70;0.40;;;;;;;;;;104180;1298;23748;-28
2022/06/17 11:14:39;;;;;;;5.00;0.50;;;;;;;;;;104059;1300;22713;-28
2022/06/17 11:17:17;;;;;;;0.70;0.30;;;;;;;;;;104125;1297;25002;-24
2022/06/17 11:19:55;;;;;;;0.40;0.40;;;;;;;;;;104196;1297;22594;-24
2022/06/17 11:22:34;;;;;;;0.50;0.30;;;;;;;;;;104054;1297;22613;-24
2022/06/17 11:25:15;;;;;;;0.40;0.30;;;;;;;;;;104171;1297;22496;-27
2022/06/17 11:27:54;;;;;;;1.60;0.60;;;;;;;;;;104064;1297;24239;-24
2022/06/17 11:30:34;;;;;;;8.10;0.40;;;;;;;;;;104111;1297;22507;-28
2022/06/17 11:33:15;;;;;;;3.20;0.60;;;;;;;;;;104130;1297;22587;-27
2022/06/17 11:35:56;;;;;;;1.40;0.70;;;;;;;;;;104144;1297;22626;-24
2022/06/17 11:38:34;;;;;;;0.40;0.20;;;;;;;;;;104170;1301;22508;-24
2022/06/17 11:41:18;;;;;;;7.20;0.40;;;;;;;;;;104100;1297;22821;-28
2022/06/17 11:43:58;;;;;;;0.90;0.30;;;;;;;;;;104207;1302;22506;-24
2022/06/17 11:46:35;;;;;;;8.00;0.40;;;;;;;;;;104202;1297;24239;-28
2022/06/17 11:49:15;;;;;;;1.10;0.50;;;;;;;;;;104064;1297;24201;-24
2022/06/17 11:51:58;;;;;;;0.70;0.30;;;;;;;;;;104189;1297;22507;-24
2022/06/17 11:54:36;;;;;;;0.90;0.40;;;;;;;;;;104142;1302;22843;-28
2022/06/17 11:57:16;;;;;;;1.30;0.40;;;;;;;;;;104156;1297;22518;-28
2022/06/17 11:59:54;;;;;;;1.00;0.50;;;;;;;;;;104202;1298;22527;-24
2022/06/17 12:02:32;;;;;;;0.50;0.50;;;;;;;;;;103883;1300;22502;-27
2022/06/17 12:05:20;;;;;;;3.00;0.60;;;;;;;;;;103954;1299;22848;-27
2022/06/17 12:07:58;;;;;;;1.70;0.40;;;;;;;;;;103970;1299;22511;-24
2022/06/17 12:10:39;;;;;;;0.90;0.50;;;;;;;;;;104014;1299;22762;-28
2022/06/17 12:13:20;;;;;;;1.10;0.40;;;;;;;;;;104092;1299;22744;-24
2022/06/17 12:15:58;;;;;;;18.00;0.50;;;;;;;;;;103818;1299;288160;-24
2022/06/17 12:18:36;;;;;;;1.40;0.60;;;;;;;;;;103933;1299;22627;-24
2022/06/17 12:21:18;;;;;;;1.40;0.30;;;;;;;;;;103980;1299;22511;-26
2022/06/17 12:23:59;;;;;;;0.30;0.20;;;;;;;;;;103948;1299;23538;-24
2022/06/17 12:26:40;;;;;;;1.00;0.40;;;;;;;;;;104005;1299;22502;-28
2022/06/17 12:29:17;;;;;;;2.00;0.70;;;;;;;;;;104026;1299;22605;-26
2022/06/17 12:31:58;;;;;;;1.20;0.40;;;;;;;;;;104044;1299;22504;-23
2022/06/17 12:34:38;;;;;;;0.80;0.50;;;;;;;;;;104091;1300;22508;-28
2022/06/17 12:37:19;;;;;;;5.40;0.70;;;;;;;;;;104012;1299;22743;-26
2022/06/17 12:39:56;;;;;;;1.10;0.40;;;;;;;;;;103967;1299;22499;-28
2022/06/17 12:42:36;;;;;;;1.50;0.30;;;;;;;;;;103938;1299;22513;-24
2022/06/17 12:45:17;;;;;;;0.90;0.80;;;;;;;;;;104013;1299;22503;-28
2022/06/17 12:48:00;;;;;;;1.20;0.30;;;;;;;;;;104154;1299;22901;-24
2022/06/17 12:53:25;;;;;;;4.90;1.20;;;;;;;;;;103932;1299;24239;-28
2022/06/17 12:56:05;;;;;;;2.80;0.90;;;;;;;;;;104007;1299;22600;-24
2022/06/17 12:58:51;;;;;;;0.60;0.40;;;;;;;;;;104019;1300;22732;-28
2022/06/17 13:01:32;;;;;;;5.70;0.70;;;;;;;;;;104023;1299;22503;-28
2022/06/17 13:04:13;;;;;;;2.50;0.40;;;;;;;;;;104041;1299;22505;-24
2022/06/17 13:06:54;;;;;;;1.20;0.30;;;;;;;;;;104057;1299;22498;-24
2022/06/17 13:09:35;;;;;;;3.80;0.50;;;;;;;;;;104065;1299;22918;-24
2022/06/17 13:12:14;;;;;;;0.80;0.50;;;;;;;;;;104012;1299;22557;-28
2022/06/17 13:14:59;;;;;;;1.60;0.60;;;;;;;;;;104060;1299;22498;-25
2022/06/17 13:17:40;;;;;;;2.10;1.00;;;;;;;;;;103988;1302;22518;-25
2022/06/17 13:20:22;;;;;;;0.30;0.30;;;;;;;;;;104040;1302;22520;-25
2022/06/17 13:23:03;;;;;;;2.40;0.40;;;;;;;;;;104049;1299;22652;-25
2022/06/17 13:25:52;;;;;;;1.80;0.40;;;;;;;;;;103952;1299;22855;-25
2022/06/17 13:28:33;;;;;;;0.80;0.40;;;;;;;;;;104011;1300;24305;-29
2022/06/17 13:31:13;;;;;;;3.10;0.40;;;;;;;;;;104025;1299;22511;-29
2022/06/17 13:33:53;;;;;;;1.70;0.70;;;;;;;;;;104073;1299;24288;-27
2022/06/17 13:36:36;;;;;;;3.70;0.60;;;;;;;;;;104030;1300;22619;-28
2022/06/17 13:39:14;;;;;;;0.30;0.30;;;;;;;;;;103946;1299;22502;-28
2022/06/17 13:41:53;;;;;;;3.00;1.10;;;;;;;;;;104023;1300;24904;-24
2022/06/17 13:44:34;;;;;;;3.30;1.30;;;;;;;;;;104064;1299;22495;-28
2022/06/17 13:47:15;;;;;;;0.70;0.40;;;;;;;;;;104042;1302;22613;-24
2022/06/17 13:49:53;;;;;;;0.80;0.40;;;;;;;;;;104051;1299;23950;-24
2022/06/17 13:52:35;;;;;;;0.30;0.20;;;;;;;;;;104053;1299;23806;-28
2022/06/17 13:55:16;;;;;;;1.20;0.50;;;;;;;;;;104031;1302;22510;-28
2022/06/17 13:57:57;;;;;;;0.50;0.30;;;;;;;;;;104029;1301;24241;-27
2022/06/17 14:00:36;;;;;;;1.80;0.50;;;;;;;;;;104018;1300;22508;-28
2022/06/17 14:03:15;;;;;;;0.90;0.40;;;;;;;;;;104043;1299;22505;-27
2022/06/17 14:05:56;;;;;;;0.50;0.40;;;;;;;;;;103944;1299;22701;-25
2022/06/17 14:08:37;;;;;;;1.40;0.70;;;;;;;;;;104071;1299;22508;-27
2022/06/17 14:13:59;;;;;;;1.40;0.60;;;;;;;;;;104006;1302;22515;-24
2022/06/17 14:16:36;;;;;;;1.40;0.40;;;;;;;;;;104088;1299;22515;-26
2022/06/17 14:19:15;;;;;;;1.30;0.50;;;;;;;;;;104022;1301;22496;-26
2022/06/17 14:21:53;;;;;;;0.90;0.30;;;;;;;;;;103986;1300;22486;-26
2022/06/17 14:24:34;;;;;;;2.80;0.40;;;;;;;;;;104102;1301;22872;-26
2022/06/17 14:27:23;;;;;;;1.70;0.40;;;;;;;;;;104039;1299;22651;-26
2022/06/17 14:30:15;;;;;;;0.90;0.40;;;;;;;;;;104043;1299;22517;-24
2022/06/17 14:32:53;;;;;;;0.40;0.40;;;;;;;;;;104027;1299;22710;-28
2022/06/17 14:35:32;;;;;;;1.70;0.40;;;;;;;;;;104085;1300;22501;-24
2022/06/17 14:38:12;;;;;;;0.80;0.40;;;;;;;;;;104094;1299;24100;-29
2022/06/17 14:43:38;;;;;;;0.60;0.20;;;;;;;;;;104015;1299;22521;-27
2022/06/17 14:46:16;;;;;;;0.50;0.30;;;;;;;;;;104029;1300;23624;-24
2022/06/17 14:49:13;;;;;;;0.50;0.30;;;;;;;;;;104011;1299;23764;-28
2022/06/17 14:51:51;;;;;;;2.70;0.50;;;;;;;;;;104014;1302;23846;-24
2022/06/17 14:54:29;;;;;;;0.20;0.20;;;;;;;;;;104059;1300;23010;-24
2022/06/17 14:57:15;;;;;;;0.90;0.40;;;;;;;;;;104104;1300;22608;-24
2022/06/17 14:59:56;;;;;;;7.90;0.50;;;;;;;;;;104090;1299;22500;-27
2022/06/17 15:02:36;;;;;;;1.20;0.40;;;;;;;;;;104104;1301;22846;-24
2022/06/17 15:05:17;;;;;;;0.70;0.20;;;;;;;;;;104070;1302;22529;-27
2022/06/17 15:07:57;;;;;;;2.50;0.50;;;;;;;;;;104107;1299;22496;-24
2022/06/17 15:10:35;;;;;;;0.70;0.30;;;;;;;;;;103973;1300;22585;-27
2022/06/17 15:14:07;;;;;;;0.50;0.30;;;;;;;;;;104075;1299;22497;-24
2022/06/17 15:16:13;;;;;;;2.00;0.60;;;;;;;;;;104077;1299;22629;-24
2022/06/17 15:18:51;;;;;;;2.60;0.50;;;;;;;;;;104066;1299;22809;-28
2022/06/17 15:21:29;;;;;;;0.50;0.40;;;;;;;;;;104007;1299;22501;-24
2022/06/17 15:24:10;;;;;;;1.40;0.60;;;;;;;;;;104089;1299;22493;-25
2022/06/17 15:26:51;;;;;;;0.80;0.60;;;;;;;;;;104150;1299;23534;-27
2022/06/17 15:29:29;;;;;;;0.80;0.40;;;;;;;;;;104037;1299;22848;-29
2022/06/17 15:32:10;;;;;;;1.60;0.40;;;;;;;;;;104035;1300;22510;-24
2022/06/17 15:34:47;;;;;;;2.60;0.30;;;;;;;;;;104142;1299;22527;-27
2022/06/17 15:37:26;;;;;;;1.20;0.60;;;;;;;;;;104028;1300;22726;-27
2022/06/17 15:40:07;;;;;;;0.40;0.40;;;;;;;;;;104021;1299;22652;-24
2022/06/17 15:42:48;;;;;;;2.70;0.70;;;;;;;;;;103973;1299;22604;-27
2022/06/17 15:45:26;;;;;;;0.90;0.40;;;;;;;;;;104291;1299;22782;-29
2022/06/17 15:48:05;;;;;;;1.90;0.40;;;;;;;;;;104053;1299;24203;-25
2022/06/17 15:50:45;;;;;;;0.30;0.30;;;;;;;;;;103992;1299;22514;-28
2022/06/17 15:53:25;;;;;;;2.10;0.50;;;;;;;;;;104048;1299;22590;-24
2022/06/17 15:56:05;;;;;;;0.70;0.40;;;;;;;;;;104017;1300;22497;-28
2022/06/17 15:58:42;;;;;;;1.00;0.40;;;;;;;;;;104089;1300;23750;-24